Time;durP1;ratioP1;P1;durP2;ratioP2;P2;SDS_P1;SDS_P2;PMS_P1;PMS_P2;Temp;Humidity;BMP_temperature;BMP_pressure;BME280_temperature;BME280_humidity;BME280_pressure;Samples;Min_cycle;Max_cycle;Signal;HPM_P1;HPM_P2
2023/06/11 00:00:28;;;;;;;;;14.00;12.33;;;;;26.22;88.19;100942.00;5075452;28;46443;-75
2023/06/11 00:02:56;;;;;;;;;11.67;11.33;;;;;26.22;88.79;100942.88;5069136;28;68207;-75
2023/06/11 00:05:23;;;;;;;;;12.67;11.00;;;;;26.21;89.04;100943.84;5074802;28;45426;-76
2023/06/11 00:07:48;;;;;;;;;15.00;12.67;;;;;26.23;89.35;100949.16;5079155;28;45506;-76
2023/06/11 00:10:15;;;;;;;;;14.67;12.33;;;;;26.21;89.77;100941.13;5074760;28;45287;-75
2023/06/11 00:12:41;;;;;;;;;14.33;12.67;;;;;26.21;90.62;100940.25;5075554;28;45453;-75
2023/06/11 00:15:07;;;;;;;;;12.00;11.33;;;;;26.21;91.78;100938.44;5079544;28;45208;-76
2023/06/11 00:17:35;;;;;;;;;10.33;10.33;;;;;26.19;92.21;100932.19;5072321;28;45646;-76
2023/06/11 00:20:09;;;;;;;;;12.67;11.00;;;;;26.20;92.68;100936.66;5077139;28;46441;-76
2023/06/11 00:22:35;;;;;;;;;9.67;9.67;;;;;26.22;93.38;100939.28;5072965;28;45467;-76
2023/06/11 00:25:00;;;;;;;;;9.00;9.00;;;;;26.21;93.45;100933.00;5070632;28;45539;-76
2023/06/11 00:27:26;;;;;;;;;11.00;10.00;;;;;26.21;93.52;100934.84;5066076;28;45412;-75
2023/06/11 00:29:53;;;;;;;;;10.33;10.00;;;;;26.21;93.79;100943.84;5075405;28;71161;-75
2023/06/11 00:32:18;;;;;;;;;10.67;9.00;;;;;26.22;93.95;100942.00;5074989;28;45595;-75
2023/06/11 00:34:44;;;;;;;;;12.33;10.67;;;;;26.19;93.05;100945.72;5077568;28;50953;-76
2023/06/11 00:37:11;;;;;;;;;9.33;9.33;;;;;26.19;94.10;100956.56;5076287;28;45354;-76
2023/06/11 00:39:36;;;;;;;;;11.67;11.67;;;;;26.19;94.47;100955.69;5074440;28;45324;-75
2023/06/11 00:42:01;;;;;;;;;10.00;8.00;;;;;26.17;94.31;100955.78;5076306;28;45166;-74
2023/06/11 00:44:29;;;;;;;;;10.00;9.00;;;;;26.15;94.62;100954.97;5074866;28;45540;-76
2023/06/11 00:46:57;;;;;;;;;8.33;7.33;;;;;26.16;95.40;100953.16;5070700;28;45637;-75
2023/06/11 00:49:23;;;;;;;;;8.33;8.33;;;;;26.15;95.72;100959.50;5074327;28;46385;-77
2023/06/11 00:51:48;;;;;;;;;11.33;10.00;;;;;26.12;95.95;100955.13;5071027;28;45490;-75
2023/06/11 00:54:16;;;;;;;;;8.00;8.00;;;;;26.10;95.39;100954.34;5075263;28;49693;-75
2023/06/11 00:56:47;;;;;;;;;8.00;8.00;;;;;26.08;95.29;100961.66;5052237;28;45335;-76
2023/06/11 00:59:19;;;;;;;;;9.00;7.33;;;;;26.06;94.86;100958.16;5053190;28;45745;-75
2023/06/11 01:01:52;;;;;;;;;8.00;8.00;;;;;26.05;95.10;100962.69;5065143;28;45246;-75
2023/06/11 01:04:17;;;;;;;;;8.00;6.00;;;;;26.04;94.36;100960.94;5057659;28;45582;-77
2023/06/11 01:06:49;;;;;;;;;8.00;8.00;;;;;26.03;95.49;100959.19;5065183;28;62898;-76
2023/06/11 01:09:17;;;;;;;;;6.00;6.00;;;;;26.01;95.35;100955.69;5067826;28;45824;-76
2023/06/11 01:11:42;;;;;;;;;6.33;5.67;;;;;26.01;94.76;100957.53;5078614;28;45599;-75
2023/06/11 01:14:12;;;;;;;;;6.33;6.33;;;;;26.00;93.66;100969.31;5074918;28;45437;-75
2023/06/11 01:16:44;;;;;;;;;5.00;5.00;;;;;25.98;93.32;100960.38;5071335;28;45348;-75
2023/06/11 01:19:29;;;;;;;;;5.00;5.00;;;;;25.98;92.38;100963.94;5056229;28;45558;-75
2023/06/11 01:21:59;;;;;;;;;7.00;6.67;;;;;25.97;92.94;100966.75;5074540;28;45604;-76
2023/06/11 01:25:13;;;;;;;;;7.33;6.33;;;;;25.96;92.54;100956.88;5069595;28;45298;-76
2023/06/11 01:28:16;;;;;;;;;6.67;6.67;;;;;25.95;92.00;100966.84;4959909;28;45399;-75
2023/06/11 01:30:45;;;;;;;;;8.00;8.00;;;;;25.95;92.90;100969.53;4917782;28;45599;-75
2023/06/11 01:33:10;;;;;;;;;11.33;8.67;;;;;25.94;92.28;100958.78;5035321;28;45599;-75
2023/06/11 01:35:36;;;;;;;;;8.67;7.00;;;;;25.93;92.98;100954.31;5059429;28;60082;-76
2023/06/11 01:38:02;;;;;;;;;9.67;7.00;;;;;25.92;92.85;100953.44;5076025;28;62234;-76
2023/06/11 01:40:28;;;;;;;;;8.33;8.33;;;;;25.92;93.05;100952.56;5060132;28;47453;-75
2023/06/11 01:42:55;;;;;;;;;7.00;7.00;;;;;25.91;93.20;100949.00;5058394;28;45384;-76
2023/06/11 01:45:21;;;;;;;;;7.00;5.00;;;;;25.90;92.68;100951.78;5056474;28;45494;-74
2023/06/11 01:47:48;;;;;;;;;9.33;7.33;;;;;25.87;92.62;100941.97;5073625;28;45625;-75
2023/06/11 01:50:14;;;;;;;;;11.33;9.67;;;;;25.87;92.58;100944.69;5078046;28;47439;-76
2023/06/11 01:52:40;;;;;;;;;7.00;7.00;;;;;25.84;93.02;100943.03;5068296;28;45521;-75
2023/06/11 01:55:06;;;;;;;;;7.33;7.33;;;;;25.83;92.99;100943.97;5075973;28;45465;-75
2023/06/11 01:57:32;;;;;;;;;9.33;9.00;;;;;25.83;93.07;100945.78;5073716;28;45425;-74
2023/06/11 01:59:57;;;;;;;;;10.00;8.00;;;;;25.83;93.29;100948.50;5072711;28;46329;-78
2023/06/11 02:02:23;;;;;;;;;6.33;6.33;;;;;25.81;92.84;100943.16;5076077;28;45442;-76
2023/06/11 02:04:48;;;;;;;;;9.33;7.67;;;;;25.80;93.24;100941.41;5076323;28;51367;-76
2023/06/11 02:07:13;;;;;;;;;7.67;7.67;;;;;25.78;93.21;100945.13;5076169;28;60447;-77
2023/06/11 02:09:39;;;;;;;;;9.00;8.00;;;;;25.79;93.45;100946.91;5070221;28;46386;-75
2023/06/11 02:12:05;;;;;;;;;9.00;7.00;;;;;25.76;93.22;100938.94;5066282;28;65587;-76
2023/06/11 02:14:31;;;;;;;;;6.67;6.67;;;;;25.75;93.42;100945.31;5076427;28;45403;-76
2023/06/11 02:16:56;;;;;;;;;12.00;5.67;;;;;25.75;94.38;100940.78;5072443;28;45390;-76
2023/06/11 02:19:22;;;;;;;;;6.00;6.00;;;;;25.73;94.31;100944.50;5073911;28;49151;-75
2023/06/11 02:21:47;;;;;;;;;8.67;8.67;;;;;25.71;94.21;100936.44;5070631;28;56931;-77
2023/06/11 02:24:13;;;;;;;;;5.00;5.00;;;;;25.69;94.42;100932.06;5073896;27;61902;-75
2023/06/11 02:26:38;;;;;;;;;6.00;6.00;;;;;25.68;95.30;100941.13;5071376;28;45397;-75
2023/06/11 02:29:03;;;;;;;;;10.67;8.00;;;;;25.67;95.46;100939.38;5076377;28;68658;-77
2023/06/11 02:31:28;;;;;;;;;7.00;7.00;;;;;25.64;95.12;100937.69;5071715;28;66681;-75
2023/06/11 02:33:54;;;;;;;;;8.33;6.67;;;;;25.60;95.80;100936.09;5072335;28;63139;-75
2023/06/11 02:36:21;;;;;;;;;6.00;6.00;;;;;25.57;95.45;100931.72;5073544;28;57121;-75
2023/06/11 02:38:46;;;;;;;;;8.00;8.00;;;;;25.56;95.49;100923.66;5074259;28;45272;-76
2023/06/11 02:41:12;;;;;;;;;6.67;6.67;;;;;25.56;96.28;100929.09;5070334;28;65667;-76
2023/06/11 02:43:37;;;;;;;;;8.33;8.33;;;;;25.52;95.82;100925.69;5075585;28;45181;-75
2023/06/11 02:46:02;;;;;;;;;7.00;7.00;;;;;25.50;96.41;100922.16;5071411;28;48543;-75
2023/06/11 02:48:27;;;;;;;;;9.00;7.00;;;;;25.50;95.67;100923.97;5074593;28;71093;-75
2023/06/11 02:50:53;;;;;;;;;9.33;7.00;;;;;25.47;95.70;100918.75;5075798;28;67280;-76
2023/06/11 02:53:18;;;;;;;;;9.33;7.33;;;;;25.44;96.44;100918.88;5076569;28;45258;-76
2023/06/11 02:55:43;;;;;;;;;10.67;6.67;;;;;25.41;96.52;100919.94;5075467;28;57004;-76
2023/06/11 02:58:09;;;;;;;;;6.67;6.67;;;;;25.38;95.98;100922.75;5074786;27;70459;-76
2023/06/11 03:00:34;;;;;;;;;7.00;7.00;;;;;25.38;96.97;100922.75;5073796;28;45308;-75
2023/06/11 03:02:59;;;;;;;;;8.00;6.67;;;;;25.36;97.20;100921.97;5066809;28;45302;-75
2023/06/11 03:05:25;;;;;;;;;7.00;5.00;;;;;25.36;96.75;100921.09;5066143;28;61955;-75
2023/06/11 03:07:50;;;;;;;;;7.67;6.00;;;;;25.36;96.86;100921.09;5066983;28;70393;-76
2023/06/11 03:10:15;;;;;;;;;7.67;7.67;;;;;25.32;97.27;100921.25;5065880;28;67731;-75
2023/06/11 03:12:41;;;;;;;;;9.00;8.67;;;;;25.33;97.54;100923.00;5070469;28;45748;-75
2023/06/11 03:15:07;;;;;;;;;8.00;8.00;;;;;25.33;97.40;100920.28;5071407;28;62309;-75
2023/06/11 03:17:32;;;;;;;;;6.33;6.33;;;;;25.30;98.10;100915.06;5075675;28;47136;-75
2023/06/11 03:19:57;;;;;;;;;8.33;7.00;;;;;25.31;97.78;100919.50;5076513;28;54650;-75
2023/06/11 03:22:22;;;;;;;;;8.67;8.00;;;;;25.29;98.18;100925.91;5074483;28;58106;-75
2023/06/11 03:24:48;;;;;;;;;7.67;7.67;;;;;25.28;98.55;100926.88;5075691;28;60656;-75
2023/06/11 03:27:13;;;;;;;;;9.00;8.00;;;;;25.28;98.21;100925.03;5070515;28;69972;-76
2023/06/11 03:29:38;;;;;;;;;9.00;9.00;;;;;25.26;98.32;100926.94;5068545;28;69727;-74
2023/06/11 03:32:04;;;;;;;;;9.00;8.00;;;;;25.24;98.57;100931.53;5071518;28;53140;-75
2023/06/11 03:34:30;;;;;;;;;7.00;7.00;;;;;25.24;99.37;100936.94;5055502;28;46652;-76
2023/06/11 03:36:55;;;;;;;;;7.00;7.00;;;;;25.23;99.38;100934.31;5075691;28;50608;-76
2023/06/11 03:39:20;;;;;;;;;10.67;10.00;;;;;25.23;99.18;100939.72;5069291;28;63605;-76
2023/06/11 03:41:46;;;;;;;;;9.33;9.33;;;;;25.22;100.00;100933.44;5071044;28;59060;-76
2023/06/11 03:44:11;;;;;;;;;12.00;11.33;;;;;25.19;100.00;100936.28;5073657;28;55993;-75
2023/06/11 03:46:37;;;;;;;;;13.33;10.33;;;;;25.18;100.00;100929.13;5066527;28;46449;-75
2023/06/11 03:49:02;;;;;;;;;12.33;12.33;;;;;25.17;100.00;100934.63;5070718;28;67367;-75
2023/06/11 03:51:27;;;;;;;;;11.33;10.33;;;;;25.16;100.00;100928.34;5056706;28;61611;-75
2023/06/11 03:53:53;;;;;;;;;11.33;10.00;;;;;25.14;100.00;100935.66;5053652;28;56272;-76
2023/06/11 03:56:18;;;;;;;;;11.00;11.00;;;;;25.12;100.00;100934.84;5065326;28;45462;-75
2023/06/11 03:58:43;;;;;;;;;10.33;10.33;;;;;25.12;100.00;100936.66;5073526;28;47996;-75
2023/06/11 04:01:09;;;;;;;;;11.00;11.00;;;;;25.09;100.00;100940.41;5063692;28;56962;-75
2023/06/11 04:03:34;;;;;;;;;12.33;11.00;;;;;25.05;100.00;100934.22;5065060;28;45525;-75
2023/06/11 04:06:02;;;;;;;;;11.33;11.00;;;;;25.02;100.00;100938.88;5067356;28;45344;-76
2023/06/11 04:08:27;;;;;;;;;12.67;12.67;;;;;25.00;100.00;100936.28;5067902;28;45527;-75
2023/06/11 04:10:52;;;;;;;;;14.67;13.33;;;;;24.98;100.00;100932.78;5073674;28;61952;-75
2023/06/11 04:13:18;;;;;;;;;13.00;12.00;;;;;24.95;100.00;100932.91;5072094;28;45197;-74
2023/06/11 04:15:43;;;;;;;;;11.33;11.33;;;;;24.95;100.00;100942.84;5075030;28;60836;-76
2023/06/11 04:18:09;;;;;;;;;12.33;11.00;;;;;24.93;100.00;100937.53;5073076;28;66352;-76
2023/06/11 04:20:35;;;;;;;;;16.00;13.33;;;;;24.92;100.00;100941.13;5064315;28;45251;-75
2023/06/11 04:23:00;;;;;;;;;17.00;12.00;;;;;24.89;100.00;100938.59;5063010;28;45590;-76
2023/06/11 04:25:26;;;;;;;;;14.00;13.00;;;;;24.90;100.00;100936.78;5067630;28;64275;-76
2023/06/11 04:27:52;;;;;;;;;13.67;12.67;;;;;24.91;100.00;100939.41;5069541;28;45320;-75
2023/06/11 04:30:18;;;;;;;;;14.00;13.67;;;;;24.92;100.00;100946.53;5049017;28;45451;-76
2023/06/11 04:32:44;;;;;;;;;15.67;14.00;;;;;24.90;100.00;100937.66;5059009;28;60205;-75
2023/06/11 04:35:10;;;;;;;;;17.00;14.67;;;;;24.90;100.00;100947.59;5053563;28;46550;-77
2023/06/11 04:37:40;;;;;;;;;12.67;12.00;;;;;24.87;100.00;100951.28;5070381;28;45355;-76
2023/06/11 04:40:09;;;;;;;;;10.00;10.00;;;;;24.87;100.00;100947.72;5065468;28;45356;-75
2023/06/11 04:42:41;;;;;;;;;12.00;12.00;;;;;24.85;100.00;100941.50;5053202;28;45530;-76
2023/06/11 04:45:09;;;;;;;;;17.00;13.00;;;;;24.82;100.00;100943.41;5069186;28;47461;-76
2023/06/11 04:47:35;;;;;;;;;16.00;16.00;;;;;24.82;100.00;100948.81;5071260;28;45300;-76
2023/06/11 04:50:04;;;;;;;;;16.00;14.33;;;;;24.82;100.00;100945.22;5074088;28;45494;-76
2023/06/11 04:52:38;;;;;;;;;14.33;13.33;;;;;24.82;100.00;100950.63;5064115;28;45645;-75
2023/06/11 04:55:05;;;;;;;;;15.00;13.67;;;;;24.83;100.00;100957.81;5069102;28;46410;-76
2023/06/11 04:57:33;;;;;;;;;8.67;7.00;;;;;24.87;100.00;100953.13;5062072;28;45343;-76
2023/06/11 04:59:59;;;;;;;;;16.67;14.67;;;;;24.86;100.00;100946.84;5046860;28;45432;-75
2023/06/11 05:02:25;;;;;;;;;14.33;12.67;;;;;24.87;100.00;100942.31;5070699;28;45505;-75
2023/06/11 05:04:53;;;;;;;;;16.00;14.67;;;;;24.89;100.00;100945.84;5072222;28;46949;-76
2023/06/11 05:07:19;;;;;;;;;13.67;12.00;;;;;24.89;100.00;100946.72;5060747;28;45457;-75
2023/06/11 05:09:45;;;;;;;;;13.00;13.00;;;;;24.88;100.00;100952.19;5045016;28;45297;-76
2023/06/11 05:12:10;;;;;;;;;17.67;15.00;;;;;24.87;100.00;100951.28;5062610;28;45715;-76
2023/06/11 05:14:36;;;;;;;;;17.67;13.67;;;;;24.90;100.00;100958.38;5072065;28;73602;-77
2023/06/11 05:17:01;;;;;;;;;12.67;12.67;;;;;24.92;100.00;100951.94;5066172;28;61672;-75
2023/06/11 05:19:27;;;;;;;;;14.33;12.67;;;;;24.94;100.00;100951.91;5064102;28;45196;-77
2023/06/11 05:21:52;;;;;;;;;14.33;13.00;;;;;24.94;100.00;100947.38;5060156;28;45522;-76
2023/06/11 05:24:20;;;;;;;;;11.67;11.67;;;;;24.96;100.00;100948.16;5068688;28;64128;-75
2023/06/11 05:26:46;;;;;;;;;16.67;13.33;;;;;24.97;100.00;100958.00;5073282;28;45315;-76
2023/06/11 05:29:12;;;;;;;;;14.33;14.33;;;;;24.98;100.00;100957.09;5064184;28;45420;-76
2023/06/11 05:31:38;;;;;;;;;12.00;12.00;;;;;25.00;100.00;100951.59;5067235;28;45303;-77
2023/06/11 05:34:03;;;;;;;;;13.00;13.00;;;;;25.03;100.00;100957.72;5073771;28;45622;-76
2023/06/11 05:36:28;;;;;;;;;15.00;15.00;;;;;25.06;100.00;100963.03;5077790;28;45485;-75
2023/06/11 05:38:54;;;;;;;;;17.00;15.00;;;;;25.08;100.00;100960.25;5071438;28;45307;-76
2023/06/11 05:41:20;;;;;;;;;16.33;13.33;;;;;25.08;100.00;100963.81;5060191;28;62648;-75
2023/06/11 05:43:46;;;;;;;;;17.67;16.00;;;;;25.09;100.00;100962.03;5055562;28;45472;-77
2023/06/11 05:46:13;;;;;;;;;15.00;13.33;;;;;25.12;100.00;100964.56;5062824;28;45453;-75
2023/06/11 05:48:38;;;;;;;;;14.00;14.00;;;;;25.15;100.00;100964.44;5066941;28;45520;-77
2023/06/11 05:51:04;;;;;;;;;13.00;11.00;;;;;25.17;100.00;100964.34;5067057;28;45355;-76
2023/06/11 05:53:29;;;;;;;;;15.33;15.00;;;;;25.20;100.00;100964.22;5069153;28;45959;-77
2023/06/11 05:55:55;;;;;;;;;16.67;15.33;;;;;25.22;100.00;100962.31;5071622;28;67361;-75
2023/06/11 05:58:20;;;;;;;;;14.33;13.00;;;;;25.23;100.00;100966.75;5067425;28;45382;-75
2023/06/11 06:00:45;;;;;;;;;16.67;16.67;;;;;25.26;100.00;100961.22;5064199;28;45310;-76
2023/06/11 06:03:11;;;;;;;;;14.00;14.00;;;;;25.25;100.00;100956.78;5044379;28;64684;-75
2023/06/11 06:05:36;;;;;;;;;19.67;16.67;;;;;25.27;100.00;100961.13;5069435;28;66850;-76
2023/06/11 06:08:01;;;;;;;;;15.00;15.00;;;;;25.29;100.00;100961.91;5053862;28;45387;-75
2023/06/11 06:10:27;;;;;;;;;19.00;16.00;;;;;25.32;100.00;100963.63;5063358;28;45497;-77
2023/06/11 06:12:52;;;;;;;;;15.00;15.00;;;;;25.35;100.00;100968.84;5062003;28;68466;-75
2023/06/11 06:15:17;;;;;;;;;18.67;16.00;;;;;25.39;100.00;100970.47;5070184;28;48039;-75
2023/06/11 06:17:43;;;;;;;;;17.00;15.67;;;;;25.42;100.00;100974.88;5066307;28;45298;-76
2023/06/11 06:20:10;;;;;;;;;16.00;16.00;;;;;25.44;100.00;100973.81;5070177;28;63626;-76
2023/06/11 06:22:35;;;;;;;;;14.33;14.33;;;;;25.47;100.00;100971.00;5061528;28;47807;-76
2023/06/11 06:25:01;;;;;;;;;16.33;15.33;;;;;25.50;100.00;100972.66;5043448;28;45379;-75
2023/06/11 06:27:26;;;;;;;;;17.00;16.00;;;;;25.54;100.00;100983.25;5060876;28;45342;-75
2023/06/11 06:29:51;;;;;;;;;15.67;15.67;;;;;25.57;100.00;100977.69;5058840;28;61871;-75
2023/06/11 06:32:17;;;;;;;;;16.33;13.00;;;;;25.60;100.00;100982.06;5069601;28;45422;-77
2023/06/11 06:34:42;;;;;;;;;15.33;14.33;;;;;25.64;100.00;100975.56;5061212;28;45508;-76
2023/06/11 06:37:09;;;;;;;;;17.67;17.33;;;;;25.66;100.00;100980.88;5054188;28;45352;-75
2023/06/11 06:39:34;;;;;;;;;14.00;14.00;;;;;25.67;100.00;100970.00;5059943;28;45491;-77
2023/06/11 06:42:00;;;;;;;;;22.67;18.67;;;;;25.71;100.00;100985.13;5065301;28;45479;-76
2023/06/11 06:44:25;;;;;;;;;17.67;15.00;;;;;25.72;100.00;100978.75;5058739;28;50373;-75
2023/06/11 06:46:53;;;;;;;;;16.33;15.33;;;;;25.78;100.00;100983.00;5060797;28;45388;-74
2023/06/11 06:49:19;;;;;;;;;17.67;15.00;;;;;25.81;100.00;100982.88;5062022;28;45418;-72
2023/06/11 06:51:44;;;;;;;;;14.00;14.00;;;;;25.79;100.00;100984.78;5051932;28;46582;-74
2023/06/11 06:54:10;;;;;;;;;16.67;13.00;;;;;25.80;100.00;100978.41;5054112;28;66156;-72
2023/06/11 06:56:35;;;;;;;;;16.33;16.33;;;;;25.83;100.00;100989.06;5063227;28;45477;-74
2023/06/11 06:59:01;;;;;;;;;20.00;18.33;;;;;25.82;100.00;100981.91;5059566;28;45680;-73
2023/06/11 07:01:26;;;;;;;;;15.67;15.67;;;;;25.81;100.00;100972.06;5052870;28;69681;-76
2023/06/11 07:03:51;;;;;;;;;19.33;17.67;;;;;25.86;100.00;100981.69;5041053;28;45394;-73
2023/06/11 07:06:17;;;;;;;;;18.33;17.33;;;;;25.86;100.00;100978.09;5065313;28;65751;-73
2023/06/11 07:08:42;;;;;;;;;22.00;20.00;;;;;25.89;100.00;100987.88;5062082;28;62854;-76
2023/06/11 07:11:07;;;;;;;;;20.33;19.00;;;;;25.91;100.00;100992.28;5062784;28;45644;-72
2023/06/11 07:13:34;;;;;;;;;17.33;17.33;;;;;25.92;100.00;100994.03;5038026;28;47162;-73
2023/06/11 07:15:59;;;;;;;;;20.67;18.00;;;;;25.95;100.00;101003.84;5059054;28;45486;-72
2023/06/11 07:18:26;;;;;;;;;20.00;18.00;;;;;25.93;100.00;101001.19;5063297;28;45469;-75
2023/06/11 07:20:51;;;;;;;;;18.33;18.33;;;;;25.94;100.00;101012.88;5063991;28;46570;-73
2023/06/11 07:23:17;;;;;;;;;21.00;21.00;;;;;25.92;100.00;101015.66;5049329;28;69069;-73
2023/06/11 07:25:43;;;;;;;;;21.33;20.33;;;;;25.97;100.00;101019.03;5052503;28;62844;-75
2023/06/11 07:28:09;;;;;;;;;22.00;20.33;;;;;25.95;100.00;101015.53;5058172;28;45355;-73
2023/06/11 07:30:34;;;;;;;;;25.00;20.00;;;;;25.94;100.00;101012.88;5060516;28;46815;-73
2023/06/11 07:33:00;;;;;;;;;18.67;18.67;;;;;25.95;100.00;101010.13;5052007;28;45407;-73
2023/06/11 07:35:26;;;;;;;;;21.67;21.00;;;;;25.97;100.00;101013.63;5015958;28;54446;-73
2023/06/11 07:37:52;;;;;;;;;23.67;23.00;;;;;25.99;100.00;101016.22;5054362;28;45466;-75
2023/06/11 07:40:18;;;;;;;;;26.00;21.33;;;;;26.02;100.00;101019.66;5056354;28;46414;-74
2023/06/11 07:42:45;;;;;;;;;21.33;21.33;;;;;26.02;100.00;101016.97;5061302;28;45442;-74
2023/06/11 07:45:11;;;;;;;;;19.33;19.00;;;;;26.04;100.00;101019.59;5044833;28;45505;-76
2023/06/11 07:47:37;;;;;;;;;22.33;19.67;;;;;26.00;100.00;101012.59;5047102;28;46766;-75
2023/06/11 07:50:04;;;;;;;;;20.33;20.00;;;;;26.01;100.00;101019.75;5058507;28;70790;-75
2023/06/11 07:52:29;;;;;;;;;18.33;17.33;;;;;26.00;100.00;101018.88;5051199;28;45565;-74
2023/06/11 07:54:54;;;;;;;;;17.67;17.33;;;;;26.00;100.00;101018.00;5065729;28;45184;-75
2023/06/11 07:57:20;;;;;;;;;21.00;19.33;;;;;26.00;100.00;101020.72;5037827;28;45480;-76
2023/06/11 07:59:46;;;;;;;;;20.00;17.33;;;;;25.99;100.00;101013.53;5064553;28;46412;-75
2023/06/11 08:02:11;;;;;;;;;19.67;18.33;;;;;26.00;100.00;101013.47;5052644;28;64840;-77
2023/06/11 08:04:37;;;;;;;;;19.00;17.33;;;;;25.98;100.00;101015.38;5060698;28;45801;-76
2023/06/11 08:07:03;;;;;;;;;18.00;17.00;;;;;25.99;100.00;101011.69;5044161;28;45708;-75
2023/06/11 08:09:29;;;;;;;;;18.00;18.00;;;;;26.02;100.00;101013.38;5067137;28;46572;-82
2023/06/11 08:11:55;;;;;;;;;20.00;20.00;;;;;26.03;100.00;101013.31;5047027;28;45297;-82
2023/06/11 08:14:21;;;;;;;;;18.00;16.00;;;;;26.04;100.00;101014.16;5050485;28;45547;-78
2023/06/11 08:16:46;;;;;;;;;19.67;17.00;;;;;26.05;100.00;101005.13;5162576;22;45944;-80
2023/06/11 08:19:12;;;;;;;;;16.33;16.33;;;;;26.08;100.00;101005.81;5070185;27;46427;-79
2023/06/11 08:21:38;;;;;;;;;20.00;16.67;;;;;26.10;100.00;101016.59;5076185;27;45473;-77
2023/06/11 08:24:05;;;;;;;;;16.33;14.33;;;;;26.09;100.00;101012.97;5076832;27;66780;-78
2023/06/11 08:26:30;;;;;;;;;18.33;15.33;;;;;26.11;100.00;101007.53;5077869;27;45688;-80
2023/06/11 08:28:55;;;;;;;;;15.33;15.33;;;;;26.17;100.00;101006.31;5079062;27;47228;-80
2023/06/11 08:31:21;;;;;;;;;15.67;15.67;;;;;26.24;100.00;101003.22;5075914;28;61797;-80
2023/06/11 08:33:46;;;;;;;;;17.67;17.33;;;;;26.35;100.00;101005.38;5078557;27;45445;-80
2023/06/11 08:36:11;;;;;;;;;15.67;15.67;;;;;26.44;100.00;101007.63;5071972;27;61750;-80
2023/06/11 08:38:37;;;;;;;;;17.00;16.67;;;;;26.52;100.00;100991.84;5076740;27;65910;-78
2023/06/11 08:41:02;;;;;;;;;18.33;15.00;;;;;26.62;100.00;101001.22;5083299;27;45738;-81
2023/06/11 08:43:27;;;;;;;;;15.00;15.00;;;;;26.73;100.00;101002.50;5073094;28;66304;-80
2023/06/11 08:45:53;;;;;;;;;17.00;15.33;;;;;26.80;100.00;100993.09;5076874;27;46208;-80
2023/06/11 08:48:23;;;;;;;;;16.67;14.67;;;;;26.86;100.00;100992.78;5077017;27;70255;-81
2023/06/11 08:50:53;;;;;;;;;18.33;17.67;;;;;26.94;100.00;100987.78;5078214;27;46167;-79
2023/06/11 08:53:19;;;;;;;;;17.67;14.67;;;;;27.03;100.00;100997.25;5077021;27;46353;-82
2023/06/11 08:55:45;;;;;;;;;17.00;17.00;;;;;27.07;100.00;100986.19;5077058;27;45580;-78
2023/06/11 08:58:12;;;;;;;;;16.33;15.00;;;;;27.08;100.00;100984.38;5075426;28;46557;-80
2023/06/11 09:00:37;;;;;;;;;15.33;15.33;;;;;27.04;100.00;100997.16;5076754;27;45588;-78
2023/06/11 09:03:04;;;;;;;;;17.33;16.67;;;;;27.01;100.00;100996.47;5077883;27;45380;-77
2023/06/11 09:05:30;;;;;;;;;15.67;15.67;;;;;26.95;100.00;100999.50;5076422;27;46390;-81
2023/06/11 09:07:57;;;;;;;;;13.67;13.67;;;;;26.94;100.00;100998.63;5077697;27;47327;-80
2023/06/11 09:10:22;;;;;;;;;15.67;15.67;;;;;26.93;100.00;100993.31;5069667;27;45536;-75
2023/06/11 09:12:48;;;;;;;;;17.00;17.00;;;;;26.97;100.00;100990.34;5077476;27;45336;-79
2023/06/11 09:15:14;;;;;;;;;19.33;18.00;;;;;27.06;100.00;101000.69;5077093;27;45823;-79
2023/06/11 09:17:41;;;;;;;;;18.00;17.00;;;;;27.12;100.00;100994.09;5073448;27;46563;-79
2023/06/11 09:20:12;;;;;;;;;21.33;16.67;;;;;27.17;100.00;101000.13;5075649;28;45304;-80
2023/06/11 09:22:38;;;;;;;;;16.33;16.33;;;;;27.23;100.00;101015.19;5071782;28;45422;-78
2023/06/11 09:25:04;;;;;;;;;19.00;19.00;;;;;27.20;100.00;101018.03;5078303;28;45607;-83
2023/06/11 09:27:30;;;;;;;;;26.33;24.00;;;;;27.12;100.00;101013.94;5071831;28;46447;-81
2023/06/11 09:29:55;;;;;;;;;20.33;20.33;;;;;27.04;100.00;101021.56;5072596;28;45499;-80
2023/06/11 09:32:20;;;;;;;;;23.67;21.00;;;;;26.94;100.00;101020.31;5057124;28;51302;-80
2023/06/11 09:34:46;;;;;;;;;21.67;21.00;;;;;26.81;100.00;101030.06;5076245;28;55118;-79
2023/06/11 09:37:11;;;;;;;;;22.67;21.33;;;;;26.73;100.00;101027.75;5069143;28;46619;-81
2023/06/11 09:39:36;;;;;;;;;24.00;22.33;;;;;26.67;100.00;101030.78;5074897;28;70375;-79
2023/06/11 09:42:02;;;;;;;;;24.00;23.00;;;;;26.66;100.00;101037.16;5071634;28;61078;-82
2023/06/11 09:44:31;;;;;;;;;22.33;21.00;;;;;26.73;100.00;101033.16;5059728;28;45642;-78
2023/06/11 09:46:56;;;;;;;;;24.33;21.00;;;;;26.83;100.00;101042.56;5055483;28;46714;-76
2023/06/11 09:49:22;;;;;;;;;22.33;19.00;;;;;26.90;100.00;101038.59;5075003;28;59498;-76
2023/06/11 09:51:48;;;;;;;;;29.33;25.33;;;;;26.93;100.00;101034.81;5061733;28;57576;-80
2023/06/11 09:54:14;;;;;;;;;22.33;22.33;;;;;26.93;100.00;101040.25;5072129;28;57282;-79
2023/06/11 09:56:42;;;;;;;;;24.33;24.33;;;;;26.93;100.00;101042.94;5057026;28;45789;-78
2023/06/11 09:59:10;;;;;;;;;26.00;24.00;;;;;26.95;100.00;101048.28;5075571;27;45511;-81
2023/06/11 10:01:35;;;;;;;;;23.67;22.00;;;;;26.89;100.00;101047.66;5058307;28;45462;-78
2023/06/11 10:04:01;;;;;;;;;24.67;24.67;;;;;26.83;100.00;101047.97;5057598;28;45562;-81
2023/06/11 10:06:32;;;;;;;;;26.33;23.00;;;;;26.80;100.00;101048.16;5070769;28;46498;-86
2023/06/11 10:09:00;;;;;;;;;25.00;25.00;;;;;26.79;100.00;101051.84;5070055;28;45606;-81
2023/06/11 10:11:28;;;;;;;;;26.67;24.00;;;;;26.79;100.00;101056.34;5059821;28;45348;-77
2023/06/11 10:14:00;;;;;;;;;31.67;30.33;;;;;26.81;100.00;101059.88;5048289;28;46679;-78
2023/06/11 10:16:27;;;;;;;;;45.25;38.00;;;;;26.83;100.00;101055.25;5070493;27;46638;-77
2023/06/11 10:19:06;;;;;;;;;87.75;80.50;;;;;26.83;100.00;101056.13;5076072;27;45438;-80
2023/06/11 10:21:50;;;;;;;;;43.50;37.50;;;;;26.84;100.00;101067.81;5074799;27;45527;-79
2023/06/11 10:24:26;;;;;;;;;48.00;38.00;;;;;26.81;100.00;101062.59;5085450;27;45506;-79
2023/06/11 10:27:03;;;;;;;;;72.00;56.75;;;;;26.76;100.00;101061.94;5076846;27;48355;-79
2023/06/11 10:29:29;;;;;;;;;39.33;33.33;;;;;26.75;100.00;101065.63;5073914;27;45909;-80
2023/06/11 10:31:58;;;;;;;;;56.00;43.00;;;;;26.78;100.00;101065.44;5060431;27;64534;-77
2023/06/11 10:34:24;;;;;;;;;41.00;33.25;;;;;26.86;100.00;101071.34;5076226;27;45814;-76
2023/06/11 10:36:49;;;;;;;;;26.33;24.00;;;;;26.95;100.00;101068.13;5078058;27;46588;-80
2023/06/11 10:39:22;;;;;;;;;31.00;29.67;;;;;27.09;100.00;101067.44;5073532;27;45850;-76
2023/06/11 10:42:01;;;;;;;;;35.67;32.00;;;;;27.24;100.00;101063.00;5075522;27;45881;-74
2023/06/11 10:44:29;;;;;;;;;34.33;32.33;;;;;27.38;100.00;101066.72;5078283;27;45572;-74
2023/06/11 10:46:55;;;;;;;;;39.00;31.00;;;;;27.49;100.00;101062.53;5081650;27;46822;-76
2023/06/11 10:49:27;;;;;;;;;39.67;33.33;;;;;27.57;100.00;101069.28;5038538;27;45848;-77
2023/06/11 10:51:59;;;;;;;;;45.33;35.00;;;;;27.68;100.00;101063.25;5061547;27;46081;-77
2023/06/11 10:54:34;;;;;;;;;35.67;32.00;;;;;27.70;100.00;101064.06;5063548;27;46234;-79
2023/06/11 10:57:01;;;;;;;;;29.33;28.00;;;;;27.66;100.00;101066.03;5075602;27;47098;-75
2023/06/11 10:59:26;;;;;;;;;30.67;30.00;;;;;27.64;100.00;101062.53;5068805;27;45517;-81
2023/06/11 11:01:53;;;;;;;;;29.00;27.00;;;;;27.63;100.00;101060.78;5071697;27;45608;-76
2023/06/11 11:04:18;;;;;;;;;32.00;31.00;;;;;27.63;100.00;101063.50;5079010;27;45632;-76
2023/06/11 11:06:44;;;;;;;;;34.33;29.67;;;;;27.61;100.00;101061.84;5069923;27;66667;-76